sensor_id;sensor_type;location;lat;lon;timestamp;P1;durP1;ratioP1;P2;durP2;ratioP2
34064;SDS011;20339;49.754;20.158;2022-09-16T00:02:02;8.10;;;5.50;;
34064;SDS011;20339;49.754;20.158;2022-09-16T00:04:33;6.50;;;5.10;;
34064;SDS011;20339;49.754;20.158;2022-09-16T00:07:04;7.20;;;4.70;;
34064;SDS011;20339;49.754;20.158;2022-09-16T00:09:37;6.10;;;5.00;;
34064;SDS011;20339;49.754;20.158;2022-09-16T00:12:08;8.00;;;5.40;;
34064;SDS011;20339;49.754;20.158;2022-09-16T00:14:40;7.90;;;5.10;;
34064;SDS011;20339;49.754;20.158;2022-09-16T00:17:11;8.00;;;5.30;;
34064;SDS011;20339;49.754;20.158;2022-09-16T00:19:42;7.70;;;4.80;;
34064;SDS011;20339;49.754;20.158;2022-09-16T00:22:13;8.60;;;5.40;;
34064;SDS011;20339;49.754;20.158;2022-09-16T00:24:45;7.60;;;5.30;;
34064;SDS011;20339;49.754;20.158;2022-09-16T00:27:17;9.40;;;6.30;;
34064;SDS011;20339;49.754;20.158;2022-09-16T00:29:49;6.20;;;5.30;;
34064;SDS011;20339;49.754;20.158;2022-09-16T00:32:20;6.30;;;4.60;;
34064;SDS011;20339;49.754;20.158;2022-09-16T00:34:52;7.40;;;5.00;;
34064;SDS011;20339;49.754;20.158;2022-09-16T00:37:23;7.80;;;4.90;;
34064;SDS011;20339;49.754;20.158;2022-09-16T00:39:54;8.10;;;5.20;;
34064;SDS011;20339;49.754;20.158;2022-09-16T00:42:27;8.20;;;5.40;;
34064;SDS011;20339;49.754;20.158;2022-09-16T00:44:59;6.70;;;5.50;;
34064;SDS011;20339;49.754;20.158;2022-09-16T00:47:33;6.70;;;5.10;;
34064;SDS011;20339;49.754;20.158;2022-09-16T00:50:11;8.00;;;5.20;;
34064;SDS011;20339;49.754;20.158;2022-09-16T00:52:45;7.00;;;5.00;;
34064;SDS011;20339;49.754;20.158;2022-09-16T00:55:19;5.00;;;4.40;;
34064;SDS011;20339;49.754;20.158;2022-09-16T00:57:54;5.80;;;4.40;;
34064;SDS011;20339;49.754;20.158;2022-09-16T01:00:31;9.10;;;4.80;;
34064;SDS011;20339;49.754;20.158;2022-09-16T01:03:04;6.90;;;4.60;;
34064;SDS011;20339;49.754;20.158;2022-09-16T01:05:35;6.30;;;3.80;;
34064;SDS011;20339;49.754;20.158;2022-09-16T01:08:08;6.60;;;4.80;;
34064;SDS011;20339;49.754;20.158;2022-09-16T01:10:40;6.80;;;4.60;;
34064;SDS011;20339;49.754;20.158;2022-09-16T01:13:12;8.70;;;4.80;;
34064;SDS011;20339;49.754;20.158;2022-09-16T01:15:46;6.10;;;4.40;;
34064;SDS011;20339;49.754;20.158;2022-09-16T01:18:25;6.10;;;4.10;;
34064;SDS011;20339;49.754;20.158;2022-09-16T01:21:05;6.70;;;4.60;;
34064;SDS011;20339;49.754;20.158;2022-09-16T01:23:58;6.10;;;4.20;;
34064;SDS011;20339;49.754;20.158;2022-09-16T01:26:56;6.90;;;4.10;;
34064;SDS011;20339;49.754;20.158;2022-09-16T01:29:57;5.60;;;3.90;;
34064;SDS011;20339;49.754;20.158;2022-09-16T01:33:02;5.50;;;4.50;;
34064;SDS011;20339;49.754;20.158;2022-09-16T01:35:41;5.20;;;3.90;;
34064;SDS011;20339;49.754;20.158;2022-09-16T01:38:25;7.60;;;4.60;;
34064;SDS011;20339;49.754;20.158;2022-09-16T01:41:05;8.30;;;4.40;;
34064;SDS011;20339;49.754;20.158;2022-09-16T01:43:47;5.90;;;4.00;;
34064;SDS011;20339;49.754;20.158;2022-09-16T01:46:26;7.30;;;4.40;;
34064;SDS011;20339;49.754;20.158;2022-09-16T01:49:06;5.90;;;4.00;;
34064;SDS011;20339;49.754;20.158;2022-09-16T01:51:47;6.90;;;4.50;;
34064;SDS011;20339;49.754;20.158;2022-09-16T01:54:25;7.60;;;5.30;;
34064;SDS011;20339;49.754;20.158;2022-09-16T01:57:03;10.30;;;4.70;;
34064;SDS011;20339;49.754;20.158;2022-09-16T01:59:41;8.30;;;5.10;;
34064;SDS011;20339;49.754;20.158;2022-09-16T02:02:17;8.40;;;4.90;;
34064;SDS011;20339;49.754;20.158;2022-09-16T02:04:53;6.10;;;4.40;;
34064;SDS011;20339;49.754;20.158;2022-09-16T02:07:26;7.80;;;4.80;;
34064;SDS011;20339;49.754;20.158;2022-09-16T02:10:04;6.60;;;4.70;;
34064;SDS011;20339;49.754;20.158;2022-09-16T02:12:42;6.00;;;4.40;;
34064;SDS011;20339;49.754;20.158;2022-09-16T02:15:18;7.00;;;4.80;;
34064;SDS011;20339;49.754;20.158;2022-09-16T02:17:51;6.90;;;5.10;;
34064;SDS011;20339;49.754;20.158;2022-09-16T02:20:29;7.20;;;4.60;;
34064;SDS011;20339;49.754;20.158;2022-09-16T02:23:04;7.90;;;5.20;;
34064;SDS011;20339;49.754;20.158;2022-09-16T02:25:40;8.00;;;5.30;;
34064;SDS011;20339;49.754;20.158;2022-09-16T02:28:16;7.80;;;5.10;;
34064;SDS011;20339;49.754;20.158;2022-09-16T02:30:53;6.50;;;5.20;;
34064;SDS011;20339;49.754;20.158;2022-09-16T02:33:29;7.90;;;4.90;;
34064;SDS011;20339;49.754;20.158;2022-09-16T02:36:02;6.30;;;4.80;;
34064;SDS011;20339;49.754;20.158;2022-09-16T02:38:36;6.40;;;5.10;;
34064;SDS011;20339;49.754;20.158;2022-09-16T02:41:09;9.00;;;5.50;;
34064;SDS011;20339;49.754;20.158;2022-09-16T02:43:42;7.80;;;5.60;;
34064;SDS011;20339;49.754;20.158;2022-09-16T02:46:17;8.60;;;5.40;;
34064;SDS011;20339;49.754;20.158;2022-09-16T02:48:56;6.40;;;5.50;;
34064;SDS011;20339;49.754;20.158;2022-09-16T02:51:39;7.10;;;6.00;;
34064;SDS011;20339;49.754;20.158;2022-09-16T02:54:24;7.90;;;5.60;;
34064;SDS011;20339;49.754;20.158;2022-09-16T02:57:04;8.50;;;5.60;;
34064;SDS011;20339;49.754;20.158;2022-09-16T02:59:38;7.90;;;5.70;;
34064;SDS011;20339;49.754;20.158;2022-09-16T03:02:10;6.60;;;5.20;;
34064;SDS011;20339;49.754;20.158;2022-09-16T03:04:42;6.80;;;4.70;;
34064;SDS011;20339;49.754;20.158;2022-09-16T03:07:14;7.20;;;4.80;;
34064;SDS011;20339;49.754;20.158;2022-09-16T03:09:46;6.80;;;4.50;;
34064;SDS011;20339;49.754;20.158;2022-09-16T03:12:32;6.80;;;5.00;;
34064;SDS011;20339;49.754;20.158;2022-09-16T03:15:26;5.30;;;4.80;;
34064;SDS011;20339;49.754;20.158;2022-09-16T03:21:03;7.50;;;4.30;;
34064;SDS011;20339;49.754;20.158;2022-09-16T03:23:42;6.40;;;4.60;;
34064;SDS011;20339;49.754;20.158;2022-09-16T03:26:27;5.60;;;4.40;;
34064;SDS011;20339;49.754;20.158;2022-09-16T03:29:12;6.40;;;5.00;;
34064;SDS011;20339;49.754;20.158;2022-09-16T03:31:50;5.90;;;4.60;;
34064;SDS011;20339;49.754;20.158;2022-09-16T03:34:28;7.20;;;5.00;;
34064;SDS011;20339;49.754;20.158;2022-09-16T03:37:02;7.80;;;4.80;;
34064;SDS011;20339;49.754;20.158;2022-09-16T03:39:36;8.80;;;4.90;;
34064;SDS011;20339;49.754;20.158;2022-09-16T03:42:09;6.60;;;4.90;;
34064;SDS011;20339;49.754;20.158;2022-09-16T03:44:42;8.30;;;5.00;;
34064;SDS011;20339;49.754;20.158;2022-09-16T03:47:13;7.60;;;5.10;;
34064;SDS011;20339;49.754;20.158;2022-09-16T03:49:45;5.70;;;5.10;;
34064;SDS011;20339;49.754;20.158;2022-09-16T03:52:18;8.40;;;5.00;;
34064;SDS011;20339;49.754;20.158;2022-09-16T03:54:49;7.10;;;4.70;;
34064;SDS011;20339;49.754;20.158;2022-09-16T03:57:20;6.30;;;5.00;;
34064;SDS011;20339;49.754;20.158;2022-09-16T03:59:51;6.70;;;4.90;;
34064;SDS011;20339;49.754;20.158;2022-09-16T04:02:22;10.50;;;5.00;;
34064;SDS011;20339;49.754;20.158;2022-09-16T04:04:53;7.40;;;5.00;;
34064;SDS011;20339;49.754;20.158;2022-09-16T04:07:27;6.20;;;4.80;;
34064;SDS011;20339;49.754;20.158;2022-09-16T04:10:00;7.00;;;5.50;;
34064;SDS011;20339;49.754;20.158;2022-09-16T04:12:31;6.40;;;4.90;;
34064;SDS011;20339;49.754;20.158;2022-09-16T04:15:03;7.90;;;4.90;;
34064;SDS011;20339;49.754;20.158;2022-09-16T04:17:36;7.40;;;4.80;;
34064;SDS011;20339;49.754;20.158;2022-09-16T04:20:09;5.40;;;4.60;;
34064;SDS011;20339;49.754;20.158;2022-09-16T04:22:40;7.10;;;5.10;;
34064;SDS011;20339;49.754;20.158;2022-09-16T04:25:11;6.20;;;4.80;;
34064;SDS011;20339;49.754;20.158;2022-09-16T04:27:43;6.40;;;4.60;;
34064;SDS011;20339;49.754;20.158;2022-09-16T04:30:14;7.50;;;4.90;;
34064;SDS011;20339;49.754;20.158;2022-09-16T04:32:51;10.70;;;6.40;;
34064;SDS011;20339;49.754;20.158;2022-09-16T04:35:24;6.60;;;4.50;;
34064;SDS011;20339;49.754;20.158;2022-09-16T04:37:55;7.60;;;5.30;;
34064;SDS011;20339;49.754;20.158;2022-09-16T04:40:26;8.20;;;5.10;;
34064;SDS011;20339;49.754;20.158;2022-09-16T04:42:59;5.80;;;4.90;;
34064;SDS011;20339;49.754;20.158;2022-09-16T04:45:30;6.20;;;5.10;;
34064;SDS011;20339;49.754;20.158;2022-09-16T04:48:02;7.40;;;4.80;;
34064;SDS011;20339;49.754;20.158;2022-09-16T04:50:33;5.00;;;4.00;;
34064;SDS011;20339;49.754;20.158;2022-09-16T04:53:05;6.40;;;4.40;;
34064;SDS011;20339;49.754;20.158;2022-09-16T04:55:37;6.90;;;4.40;;
34064;SDS011;20339;49.754;20.158;2022-09-16T04:58:09;9.40;;;4.70;;
34064;SDS011;20339;49.754;20.158;2022-09-16T05:00:40;6.30;;;4.30;;
34064;SDS011;20339;49.754;20.158;2022-09-16T05:03:13;7.30;;;4.70;;
34064;SDS011;20339;49.754;20.158;2022-09-16T05:05:44;7.60;;;4.70;;
34064;SDS011;20339;49.754;20.158;2022-09-16T05:08:18;5.00;;;4.30;;
34064;SDS011;20339;49.754;20.158;2022-09-16T05:10:49;8.10;;;5.00;;
34064;SDS011;20339;49.754;20.158;2022-09-16T05:13:21;7.50;;;4.30;;
34064;SDS011;20339;49.754;20.158;2022-09-16T05:15:52;5.70;;;4.60;;
34064;SDS011;20339;49.754;20.158;2022-09-16T05:18:24;6.90;;;4.60;;
34064;SDS011;20339;49.754;20.158;2022-09-16T05:20:57;5.70;;;4.20;;
34064;SDS011;20339;49.754;20.158;2022-09-16T05:23:29;8.60;;;4.50;;
34064;SDS011;20339;49.754;20.158;2022-09-16T05:26:03;6.50;;;5.00;;
34064;SDS011;20339;49.754;20.158;2022-09-16T05:28:36;8.90;;;4.70;;
34064;SDS011;20339;49.754;20.158;2022-09-16T05:31:11;7.10;;;4.40;;
34064;SDS011;20339;49.754;20.158;2022-09-16T05:33:44;4.20;;;3.30;;
34064;SDS011;20339;49.754;20.158;2022-09-16T05:36:21;6.20;;;3.70;;
34064;SDS011;20339;49.754;20.158;2022-09-16T05:38:54;6.80;;;2.90;;
34064;SDS011;20339;49.754;20.158;2022-09-16T05:41:25;5.30;;;3.10;;
34064;SDS011;20339;49.754;20.158;2022-09-16T05:43:58;4.90;;;3.30;;
34064;SDS011;20339;49.754;20.158;2022-09-16T05:46:30;5.30;;;2.60;;
34064;SDS011;20339;49.754;20.158;2022-09-16T05:49:01;5.10;;;3.00;;
34064;SDS011;20339;49.754;20.158;2022-09-16T05:51:33;4.60;;;2.70;;
34064;SDS011;20339;49.754;20.158;2022-09-16T05:54:05;5.90;;;2.90;;
34064;SDS011;20339;49.754;20.158;2022-09-16T05:56:36;5.70;;;3.00;;
34064;SDS011;20339;49.754;20.158;2022-09-16T05:59:09;5.10;;;2.70;;
34064;SDS011;20339;49.754;20.158;2022-09-16T06:01:42;5.10;;;3.00;;
34064;SDS011;20339;49.754;20.158;2022-09-16T06:04:14;4.20;;;2.50;;
34064;SDS011;20339;49.754;20.158;2022-09-16T06:06:46;4.50;;;2.50;;
34064;SDS011;20339;49.754;20.158;2022-09-16T06:09:18;4.30;;;2.80;;
34064;SDS011;20339;49.754;20.158;2022-09-16T06:11:53;4.40;;;2.80;;
34064;SDS011;20339;49.754;20.158;2022-09-16T06:14:24;3.80;;;2.40;;
34064;SDS011;20339;49.754;20.158;2022-09-16T06:16:56;4.40;;;2.50;;
34064;SDS011;20339;49.754;20.158;2022-09-16T06:19:27;5.70;;;3.20;;
34064;SDS011;20339;49.754;20.158;2022-09-16T06:21:58;3.10;;;2.80;;
34064;SDS011;20339;49.754;20.158;2022-09-16T06:24:29;3.40;;;2.50;;
34064;SDS011;20339;49.754;20.158;2022-09-16T06:27:00;5.50;;;2.90;;
34064;SDS011;20339;49.754;20.158;2022-09-16T06:29:32;3.40;;;2.70;;
34064;SDS011;20339;49.754;20.158;2022-09-16T06:32:03;3.20;;;2.30;;
34064;SDS011;20339;49.754;20.158;2022-09-16T06:34:34;3.40;;;2.50;;
34064;SDS011;20339;49.754;20.158;2022-09-16T06:37:05;3.80;;;2.30;;
34064;SDS011;20339;49.754;20.158;2022-09-16T06:39:39;3.60;;;2.30;;
34064;SDS011;20339;49.754;20.158;2022-09-16T06:42:11;3.80;;;2.50;;
34064;SDS011;20339;49.754;20.158;2022-09-16T06:44:42;3.90;;;2.60;;
34064;SDS011;20339;49.754;20.158;2022-09-16T06:47:13;5.00;;;2.50;;
34064;SDS011;20339;49.754;20.158;2022-09-16T06:49:44;3.50;;;2.10;;
34064;SDS011;20339;49.754;20.158;2022-09-16T06:52:16;4.20;;;2.10;;
34064;SDS011;20339;49.754;20.158;2022-09-16T06:54:49;3.80;;;2.50;;
34064;SDS011;20339;49.754;20.158;2022-09-16T06:57:20;4.40;;;2.40;;
34064;SDS011;20339;49.754;20.158;2022-09-16T06:59:51;5.00;;;2.50;;
34064;SDS011;20339;49.754;20.158;2022-09-16T07:02:23;3.30;;;2.10;;
34064;SDS011;20339;49.754;20.158;2022-09-16T07:04:55;4.30;;;2.30;;
34064;SDS011;20339;49.754;20.158;2022-09-16T07:07:29;3.60;;;2.20;;
34064;SDS011;20339;49.754;20.158;2022-09-16T07:10:03;4.10;;;1.90;;
34064;SDS011;20339;49.754;20.158;2022-09-16T07:12:36;4.00;;;2.40;;
34064;SDS011;20339;49.754;20.158;2022-09-16T07:15:08;4.10;;;2.00;;
34064;SDS011;20339;49.754;20.158;2022-09-16T07:17:40;2.70;;;1.60;;
34064;SDS011;20339;49.754;20.158;2022-09-16T07:20:11;3.00;;;1.60;;
34064;SDS011;20339;49.754;20.158;2022-09-16T07:22:43;1.90;;;1.40;;
34064;SDS011;20339;49.754;20.158;2022-09-16T07:25:17;2.50;;;1.40;;
34064;SDS011;20339;49.754;20.158;2022-09-16T07:27:49;3.00;;;1.70;;
34064;SDS011;20339;49.754;20.158;2022-09-16T07:30:20;2.40;;;1.30;;
34064;SDS011;20339;49.754;20.158;2022-09-16T07:32:51;2.80;;;1.30;;
34064;SDS011;20339;49.754;20.158;2022-09-16T07:35:22;2.40;;;1.40;;
34064;SDS011;20339;49.754;20.158;2022-09-16T07:37:53;3.80;;;1.40;;
34064;SDS011;20339;49.754;20.158;2022-09-16T07:40:25;5.10;;;1.60;;
34064;SDS011;20339;49.754;20.158;2022-09-16T07:42:58;3.10;;;1.30;;
34064;SDS011;20339;49.754;20.158;2022-09-16T07:45:30;3.40;;;1.50;;
34064;SDS011;20339;49.754;20.158;2022-09-16T07:48:01;3.00;;;2.00;;
34064;SDS011;20339;49.754;20.158;2022-09-16T07:50:32;3.70;;;1.50;;
34064;SDS011;20339;49.754;20.158;2022-09-16T07:53:03;3.90;;;1.50;;
34064;SDS011;20339;49.754;20.158;2022-09-16T07:55:35;4.10;;;1.90;;
34064;SDS011;20339;49.754;20.158;2022-09-16T07:58:06;4.50;;;1.80;;
34064;SDS011;20339;49.754;20.158;2022-09-16T08:00:37;3.60;;;1.10;;
34064;SDS011;20339;49.754;20.158;2022-09-16T08:03:08;1.70;;;1.40;;
34064;SDS011;20339;49.754;20.158;2022-09-16T08:05:39;1.80;;;1.60;;
34064;SDS011;20339;49.754;20.158;2022-09-16T08:08:10;2.50;;;1.50;;
34064;SDS011;20339;49.754;20.158;2022-09-16T08:10:41;4.60;;;1.60;;
34064;SDS011;20339;49.754;20.158;2022-09-16T08:13:20;2.20;;;1.50;;
34064;SDS011;20339;49.754;20.158;2022-09-16T08:15:53;5.00;;;1.90;;
34064;SDS011;20339;49.754;20.158;2022-09-16T08:18:30;2.20;;;1.50;;
34064;SDS011;20339;49.754;20.158;2022-09-16T08:21:05;3.20;;;1.50;;
34064;SDS011;20339;49.754;20.158;2022-09-16T08:23:38;3.10;;;1.90;;
34064;SDS011;20339;49.754;20.158;2022-09-16T08:26:10;4.50;;;1.80;;
34064;SDS011;20339;49.754;20.158;2022-09-16T08:28:44;3.40;;;1.80;;
34064;SDS011;20339;49.754;20.158;2022-09-16T08:31:17;4.20;;;1.80;;
34064;SDS011;20339;49.754;20.158;2022-09-16T08:33:49;3.00;;;1.80;;
34064;SDS011;20339;49.754;20.158;2022-09-16T08:36:21;3.00;;;2.00;;
34064;SDS011;20339;49.754;20.158;2022-09-16T08:38:54;4.80;;;2.30;;
34064;SDS011;20339;49.754;20.158;2022-09-16T08:44:44;3.40;;;2.00;;
34064;SDS011;20339;49.754;20.158;2022-09-16T08:47:27;3.50;;;2.10;;
34064;SDS011;20339;49.754;20.158;2022-09-16T08:50:13;4.00;;;2.40;;
34064;SDS011;20339;49.754;20.158;2022-09-16T08:52:47;5.00;;;2.70;;
34064;SDS011;20339;49.754;20.158;2022-09-16T08:55:22;4.40;;;1.80;;
34064;SDS011;20339;49.754;20.158;2022-09-16T08:58:00;4.00;;;1.60;;
34064;SDS011;20339;49.754;20.158;2022-09-16T09:00:34;3.20;;;1.50;;
34064;SDS011;20339;49.754;20.158;2022-09-16T09:03:11;2.40;;;1.80;;
34064;SDS011;20339;49.754;20.158;2022-09-16T09:05:48;3.50;;;1.30;;
34064;SDS011;20339;49.754;20.158;2022-09-16T09:08:27;1.70;;;1.10;;
34064;SDS011;20339;49.754;20.158;2022-09-16T09:11:11;3.10;;;1.20;;
34064;SDS011;20339;49.754;20.158;2022-09-16T09:13:53;1.70;;;1.30;;
34064;SDS011;20339;49.754;20.158;2022-09-16T09:16:36;4.00;;;1.20;;
34064;SDS011;20339;49.754;20.158;2022-09-16T09:19:19;2.60;;;1.10;;
34064;SDS011;20339;49.754;20.158;2022-09-16T09:22:02;5.70;;;1.40;;
34064;SDS011;20339;49.754;20.158;2022-09-16T09:24:43;3.50;;;1.20;;
34064;SDS011;20339;49.754;20.158;2022-09-16T09:27:22;3.60;;;1.40;;
34064;SDS011;20339;49.754;20.158;2022-09-16T09:30:04;1.60;;;0.90;;
34064;SDS011;20339;49.754;20.158;2022-09-16T09:32:46;2.60;;;1.10;;
34064;SDS011;20339;49.754;20.158;2022-09-16T09:35:33;3.00;;;1.30;;
34064;SDS011;20339;49.754;20.158;2022-09-16T09:41:11;3.00;;;1.20;;
34064;SDS011;20339;49.754;20.158;2022-09-16T09:43:46;2.00;;;1.00;;
34064;SDS011;20339;49.754;20.158;2022-09-16T09:46:26;2.70;;;0.80;;
34064;SDS011;20339;49.754;20.158;2022-09-16T09:49:04;4.80;;;1.80;;
34064;SDS011;20339;49.754;20.158;2022-09-16T09:51:42;2.20;;;1.10;;
34064;SDS011;20339;49.754;20.158;2022-09-16T09:54:20;1.90;;;1.30;;
34064;SDS011;20339;49.754;20.158;2022-09-16T09:56:57;1.70;;;1.20;;
34064;SDS011;20339;49.754;20.158;2022-09-16T09:59:35;2.00;;;1.20;;
34064;SDS011;20339;49.754;20.158;2022-09-16T10:02:14;2.70;;;1.30;;
34064;SDS011;20339;49.754;20.158;2022-09-16T10:04:46;3.20;;;1.00;;
34064;SDS011;20339;49.754;20.158;2022-09-16T10:07:20;2.50;;;0.90;;
34064;SDS011;20339;49.754;20.158;2022-09-16T10:09:56;3.50;;;1.20;;
34064;SDS011;20339;49.754;20.158;2022-09-16T10:12:32;3.00;;;1.20;;
34064;SDS011;20339;49.754;20.158;2022-09-16T10:15:05;3.70;;;1.40;;
34064;SDS011;20339;49.754;20.158;2022-09-16T10:17:48;3.10;;;1.30;;
34064;SDS011;20339;49.754;20.158;2022-09-16T10:20:23;2.20;;;1.10;;
34064;SDS011;20339;49.754;20.158;2022-09-16T10:22:59;2.30;;;1.00;;
34064;SDS011;20339;49.754;20.158;2022-09-16T10:25:31;2.10;;;1.00;;
34064;SDS011;20339;49.754;20.158;2022-09-16T10:28:03;3.30;;;0.70;;
34064;SDS011;20339;49.754;20.158;2022-09-16T10:30:47;3.20;;;1.10;;
34064;SDS011;20339;49.754;20.158;2022-09-16T10:33:23;5.40;;;1.60;;
34064;SDS011;20339;49.754;20.158;2022-09-16T10:35:58;3.00;;;1.20;;
34064;SDS011;20339;49.754;20.158;2022-09-16T10:38:34;2.40;;;1.30;;
34064;SDS011;20339;49.754;20.158;2022-09-16T10:41:08;2.80;;;1.60;;
34064;SDS011;20339;49.754;20.158;2022-09-16T10:43:46;2.60;;;1.30;;
34064;SDS011;20339;49.754;20.158;2022-09-16T10:46:20;3.30;;;1.40;;
34064;SDS011;20339;49.754;20.158;2022-09-16T10:48:51;3.50;;;1.40;;
34064;SDS011;20339;49.754;20.158;2022-09-16T10:51:28;1.40;;;1.10;;
34064;SDS011;20339;49.754;20.158;2022-09-16T10:54:02;1.80;;;1.00;;
34064;SDS011;20339;49.754;20.158;2022-09-16T10:56:45;3.10;;;1.30;;
34064;SDS011;20339;49.754;20.158;2022-09-16T10:59:18;3.30;;;1.50;;
34064;SDS011;20339;49.754;20.158;2022-09-16T11:01:53;3.70;;;1.50;;
34064;SDS011;20339;49.754;20.158;2022-09-16T11:04:38;2.20;;;1.30;;
34064;SDS011;20339;49.754;20.158;2022-09-16T11:07:20;1.80;;;1.20;;
34064;SDS011;20339;49.754;20.158;2022-09-16T11:10:01;6.50;;;1.70;;
34064;SDS011;20339;49.754;20.158;2022-09-16T11:12:47;2.80;;;1.50;;
34064;SDS011;20339;49.754;20.158;2022-09-16T11:15:30;3.80;;;1.60;;
34064;SDS011;20339;49.754;20.158;2022-09-16T11:18:13;2.10;;;1.60;;
34064;SDS011;20339;49.754;20.158;2022-09-16T11:20:59;2.70;;;1.60;;
34064;SDS011;20339;49.754;20.158;2022-09-16T11:23:50;3.20;;;1.40;;
34064;SDS011;20339;49.754;20.158;2022-09-16T11:26:38;2.10;;;1.40;;
34064;SDS011;20339;49.754;20.158;2022-09-16T11:29:23;3.90;;;1.80;;
34064;SDS011;20339;49.754;20.158;2022-09-16T11:32:10;2.90;;;1.60;;
34064;SDS011;20339;49.754;20.158;2022-09-16T11:34:54;2.90;;;1.60;;
34064;SDS011;20339;49.754;20.158;2022-09-16T11:37:38;3.50;;;1.30;;
34064;SDS011;20339;49.754;20.158;2022-09-16T11:40:21;2.70;;;1.60;;
34064;SDS011;20339;49.754;20.158;2022-09-16T11:43:03;4.20;;;1.40;;
34064;SDS011;20339;49.754;20.158;2022-09-16T11:45:47;3.50;;;0.80;;
34064;SDS011;20339;49.754;20.158;2022-09-16T11:48:31;2.10;;;1.20;;
34064;SDS011;20339;49.754;20.158;2022-09-16T11:51:14;2.90;;;1.10;;
34064;SDS011;20339;49.754;20.158;2022-09-16T11:54:00;2.20;;;1.10;;
34064;SDS011;20339;49.754;20.158;2022-09-16T11:56:42;3.90;;;1.10;;
34064;SDS011;20339;49.754;20.158;2022-09-16T11:59:19;2.20;;;1.40;;
34064;SDS011;20339;49.754;20.158;2022-09-16T12:04:31;2.50;;;1.00;;
34064;SDS011;20339;49.754;20.158;2022-09-16T12:07:11;1.70;;;1.00;;
34064;SDS011;20339;49.754;20.158;2022-09-16T12:09:47;2.40;;;1.10;;
34064;SDS011;20339;49.754;20.158;2022-09-16T12:12:24;3.50;;;1.50;;
34064;SDS011;20339;49.754;20.158;2022-09-16T12:15:02;3.30;;;2.00;;
34064;SDS011;20339;49.754;20.158;2022-09-16T12:17:49;1.60;;;0.90;;
34064;SDS011;20339;49.754;20.158;2022-09-16T12:20:25;3.40;;;1.40;;
34064;SDS011;20339;49.754;20.158;2022-09-16T12:23:03;3.80;;;1.20;;
34064;SDS011;20339;49.754;20.158;2022-09-16T12:25:40;2.80;;;1.30;;
34064;SDS011;20339;49.754;20.158;2022-09-16T12:28:18;3.30;;;1.20;;
34064;SDS011;20339;49.754;20.158;2022-09-16T12:30:59;3.10;;;1.50;;
34064;SDS011;20339;49.754;20.158;2022-09-16T12:33:37;3.30;;;1.10;;
34064;SDS011;20339;49.754;20.158;2022-09-16T12:36:13;1.70;;;1.00;;
34064;SDS011;20339;49.754;20.158;2022-09-16T12:38:49;1.40;;;0.80;;
34064;SDS011;20339;49.754;20.158;2022-09-16T12:41:32;1.90;;;1.20;;
34064;SDS011;20339;49.754;20.158;2022-09-16T12:50:42;2.60;;;1.00;;
34064;SDS011;20339;49.754;20.158;2022-09-16T12:53:34;2.00;;;1.10;;
34064;SDS011;20339;49.754;20.158;2022-09-16T12:56:36;2.20;;;1.00;;
34064;SDS011;20339;49.754;20.158;2022-09-16T12:59:20;3.10;;;1.20;;
34064;SDS011;20339;49.754;20.158;2022-09-16T13:02:09;2.70;;;1.20;;
34064;SDS011;20339;49.754;20.158;2022-09-16T13:04:44;5.00;;;1.30;;
34064;SDS011;20339;49.754;20.158;2022-09-16T13:07:22;2.20;;;1.40;;
34064;SDS011;20339;49.754;20.158;2022-09-16T13:10:00;2.20;;;1.10;;
34064;SDS011;20339;49.754;20.158;2022-09-16T13:12:35;2.10;;;1.00;;
34064;SDS011;20339;49.754;20.158;2022-09-16T13:15:19;2.40;;;1.10;;
34064;SDS011;20339;49.754;20.158;2022-09-16T13:17:54;2.80;;;1.10;;
34064;SDS011;20339;49.754;20.158;2022-09-16T13:20:36;2.80;;;1.20;;
34064;SDS011;20339;49.754;20.158;2022-09-16T13:23:18;3.60;;;1.50;;
34064;SDS011;20339;49.754;20.158;2022-09-16T13:25:55;3.60;;;1.50;;
34064;SDS011;20339;49.754;20.158;2022-09-16T13:28:35;3.10;;;1.00;;
34064;SDS011;20339;49.754;20.158;2022-09-16T13:31:15;3.00;;;1.20;;
34064;SDS011;20339;49.754;20.158;2022-09-16T13:34:09;2.00;;;1.10;;
34064;SDS011;20339;49.754;20.158;2022-09-16T13:36:46;2.80;;;1.30;;
34064;SDS011;20339;49.754;20.158;2022-09-16T13:39:28;1.30;;;0.90;;
34064;SDS011;20339;49.754;20.158;2022-09-16T13:42:15;1.90;;;1.30;;
34064;SDS011;20339;49.754;20.158;2022-09-16T13:44:52;3.70;;;1.60;;
34064;SDS011;20339;49.754;20.158;2022-09-16T13:47:31;3.60;;;1.20;;
34064;SDS011;20339;49.754;20.158;2022-09-16T13:50:10;3.00;;;1.50;;
34064;SDS011;20339;49.754;20.158;2022-09-16T13:52:48;2.50;;;1.50;;
34064;SDS011;20339;49.754;20.158;2022-09-16T13:55:21;2.90;;;1.30;;
34064;SDS011;20339;49.754;20.158;2022-09-16T13:57:57;3.30;;;2.00;;
34064;SDS011;20339;49.754;20.158;2022-09-16T14:00:33;3.00;;;2.00;;
34064;SDS011;20339;49.754;20.158;2022-09-16T14:03:35;3.50;;;2.00;;
34064;SDS011;20339;49.754;20.158;2022-09-16T14:09:21;3.20;;;1.60;;
34064;SDS011;20339;49.754;20.158;2022-09-16T14:11:59;3.10;;;1.90;;
34064;SDS011;20339;49.754;20.158;2022-09-16T14:14:42;3.20;;;1.70;;
34064;SDS011;20339;49.754;20.158;2022-09-16T14:17:15;3.40;;;1.90;;
34064;SDS011;20339;49.754;20.158;2022-09-16T14:19:51;3.90;;;1.80;;
34064;SDS011;20339;49.754;20.158;2022-09-16T14:22:25;2.90;;;2.00;;
34064;SDS011;20339;49.754;20.158;2022-09-16T14:24:58;3.00;;;1.70;;
34064;SDS011;20339;49.754;20.158;2022-09-16T14:27:30;3.00;;;2.10;;
34064;SDS011;20339;49.754;20.158;2022-09-16T14:30:04;4.40;;;2.30;;
34064;SDS011;20339;49.754;20.158;2022-09-16T14:32:41;4.60;;;2.30;;
34064;SDS011;20339;49.754;20.158;2022-09-16T14:35:17;3.40;;;2.00;;
34064;SDS011;20339;49.754;20.158;2022-09-16T14:37:53;4.20;;;2.20;;
34064;SDS011;20339;49.754;20.158;2022-09-16T14:40:29;3.70;;;2.20;;
34064;SDS011;20339;49.754;20.158;2022-09-16T14:43:00;3.30;;;2.40;;
34064;SDS011;20339;49.754;20.158;2022-09-16T14:45:34;3.90;;;2.30;;
34064;SDS011;20339;49.754;20.158;2022-09-16T14:48:08;4.10;;;2.20;;
34064;SDS011;20339;49.754;20.158;2022-09-16T14:50:42;4.00;;;1.80;;
34064;SDS011;20339;49.754;20.158;2022-09-16T14:53:26;4.00;;;2.20;;
34064;SDS011;20339;49.754;20.158;2022-09-16T14:56:00;2.60;;;2.10;;
34064;SDS011;20339;49.754;20.158;2022-09-16T14:58:32;3.90;;;2.10;;
34064;SDS011;20339;49.754;20.158;2022-09-16T15:01:05;3.00;;;2.10;;
34064;SDS011;20339;49.754;20.158;2022-09-16T15:03:42;3.80;;;2.10;;
34064;SDS011;20339;49.754;20.158;2022-09-16T15:06:23;4.30;;;2.10;;
34064;SDS011;20339;49.754;20.158;2022-09-16T15:08:57;3.50;;;1.80;;
34064;SDS011;20339;49.754;20.158;2022-09-16T15:11:31;2.50;;;2.00;;
34064;SDS011;20339;49.754;20.158;2022-09-16T15:14:12;3.90;;;2.10;;
34064;SDS011;20339;49.754;20.158;2022-09-16T15:16:44;4.70;;;2.30;;
34064;SDS011;20339;49.754;20.158;2022-09-16T15:19:19;2.60;;;2.40;;
34064;SDS011;20339;49.754;20.158;2022-09-16T15:21:54;3.90;;;2.50;;
34064;SDS011;20339;49.754;20.158;2022-09-16T15:24:26;2.90;;;2.30;;
34064;SDS011;20339;49.754;20.158;2022-09-16T15:27:00;3.00;;;2.10;;
34064;SDS011;20339;49.754;20.158;2022-09-16T15:29:33;4.10;;;2.70;;
34064;SDS011;20339;49.754;20.158;2022-09-16T15:32:16;2.90;;;2.30;;
34064;SDS011;20339;49.754;20.158;2022-09-16T15:34:53;4.60;;;2.40;;
34064;SDS011;20339;49.754;20.158;2022-09-16T15:37:41;5.50;;;2.60;;
34064;SDS011;20339;49.754;20.158;2022-09-16T15:40:27;3.00;;;2.30;;
34064;SDS011;20339;49.754;20.158;2022-09-16T15:43:03;3.80;;;2.40;;
34064;SDS011;20339;49.754;20.158;2022-09-16T15:46:00;7.20;;;2.60;;
34064;SDS011;20339;49.754;20.158;2022-09-16T15:48:35;5.00;;;3.30;;